sensor_id;sensor_type;location;lat;lon;timestamp;temperature;humidity
71206;SHT31;58935;54.498;18.544;2023-04-15T00:00:41;9.58;80.81
71206;SHT31;58935;54.498;18.544;2023-04-15T00:03:07;9.60;80.83
71206;SHT31;58935;54.498;18.544;2023-04-15T00:05:32;9.62;80.73
71206;SHT31;58935;54.498;18.544;2023-04-15T00:07:58;9.66;80.66
71206;SHT31;58935;54.498;18.544;2023-04-15T00:10:25;9.67;80.52
71206;SHT31;58935;54.498;18.544;2023-04-15T00:12:51;9.69;80.47
71206;SHT31;58935;54.498;18.544;2023-04-15T00:15:19;9.73;80.42
71206;SHT31;58935;54.498;18.544;2023-04-15T00:17:44;9.74;80.29
71206;SHT31;58935;54.498;18.544;2023-04-15T00:20:10;9.73;80.08
71206;SHT31;58935;54.498;18.544;2023-04-15T00:22:35;9.71;80.01
71206;SHT31;58935;54.498;18.544;2023-04-15T00:25:01;9.72;80.10
71206;SHT31;58935;54.498;18.544;2023-04-15T00:27:27;9.74;80.12
71206;SHT31;58935;54.498;18.544;2023-04-15T00:29:52;9.76;80.03
71206;SHT31;58935;54.498;18.544;2023-04-15T00:32:18;9.75;79.87
71206;SHT31;58935;54.498;18.544;2023-04-15T00:34:44;9.73;79.81
71206;SHT31;58935;54.498;18.544;2023-04-15T00:37:09;9.74;79.85
71206;SHT31;58935;54.498;18.544;2023-04-15T00:39:34;9.74;79.82
71206;SHT31;58935;54.498;18.544;2023-04-15T00:42:03;9.74;79.76
71206;SHT31;58935;54.498;18.544;2023-04-15T00:44:29;9.71;79.68
71206;SHT31;58935;54.498;18.544;2023-04-15T00:46:55;9.72;79.78
71206;SHT31;58935;54.498;18.544;2023-04-15T00:49:21;9.74;79.80
71206;SHT31;58935;54.498;18.544;2023-04-15T00:51:47;9.76;79.72
71206;SHT31;58935;54.498;18.544;2023-04-15T00:54:12;9.75;79.54
71206;SHT31;58935;54.498;18.544;2023-04-15T00:56:37;9.74;79.50
71206;SHT31;58935;54.498;18.544;2023-04-15T00:59:04;9.73;79.49
71206;SHT31;58935;54.498;18.544;2023-04-15T01:01:32;9.73;79.49
71206;SHT31;58935;54.498;18.544;2023-04-15T01:04:00;9.71;79.49
71206;SHT31;58935;54.498;18.544;2023-04-15T01:06:26;9.73;79.59
71206;SHT31;58935;54.498;18.544;2023-04-15T01:08:52;9.77;79.58
71206;SHT31;58935;54.498;18.544;2023-04-15T01:11:18;9.79;79.40
71206;SHT31;58935;54.498;18.544;2023-04-15T01:13:45;9.79;79.27
71206;SHT31;58935;54.498;18.544;2023-04-15T01:16:11;9.77;79.24
71206;SHT31;58935;54.498;18.544;2023-04-15T01:18:38;9.76;79.18
71206;SHT31;58935;54.498;18.544;2023-04-15T01:21:06;9.75;79.35
71206;SHT31;58935;54.498;18.544;2023-04-15T01:23:32;9.73;79.21
71206;SHT31;58935;54.498;18.544;2023-04-15T01:26:01;9.72;79.30
71206;SHT31;58935;54.498;18.544;2023-04-15T01:28:27;9.71;79.36
71206;SHT31;58935;54.498;18.544;2023-04-15T01:33:24;9.66;79.39
71206;SHT31;58935;54.498;18.544;2023-04-15T01:35:49;9.68;79.40
71206;SHT31;58935;54.498;18.544;2023-04-15T01:38:15;9.67;79.37
71206;SHT31;58935;54.498;18.544;2023-04-15T01:40:41;9.67;79.32
71206;SHT31;58935;54.498;18.544;2023-04-15T01:43:06;9.65;79.33
71206;SHT31;58935;54.498;18.544;2023-04-15T01:45:32;9.65;79.40
71206;SHT31;58935;54.498;18.544;2023-04-15T01:47:57;9.65;79.39
71206;SHT31;58935;54.498;18.544;2023-04-15T01:50:22;9.65;79.37
71206;SHT31;58935;54.498;18.544;2023-04-15T01:52:48;9.66;79.45
71206;SHT31;58935;54.498;18.544;2023-04-15T01:55:13;9.65;79.30
71206;SHT31;58935;54.498;18.544;2023-04-15T01:57:39;9.66;79.34
71206;SHT31;58935;54.498;18.544;2023-04-15T02:00:05;9.65;79.37
71206;SHT31;58935;54.498;18.544;2023-04-15T02:02:32;9.65;79.38
71206;SHT31;58935;54.498;18.544;2023-04-15T02:04:59;9.63;79.37
71206;SHT31;58935;54.498;18.544;2023-04-15T02:07:25;9.59;79.44
71206;SHT31;58935;54.498;18.544;2023-04-15T02:09:50;9.58;79.47
71206;SHT31;58935;54.498;18.544;2023-04-15T02:12:15;9.58;79.49
71206;SHT31;58935;54.498;18.544;2023-04-15T02:14:41;9.58;79.46
71206;SHT31;58935;54.498;18.544;2023-04-15T02:17:06;9.57;79.55
71206;SHT31;58935;54.498;18.544;2023-04-15T02:19:33;9.58;79.51
71206;SHT31;58935;54.498;18.544;2023-04-15T02:22:01;9.61;79.58
71206;SHT31;58935;54.498;18.544;2023-04-15T02:24:28;9.63;79.43
71206;SHT31;58935;54.498;18.544;2023-04-15T02:26:56;9.63;79.34
71206;SHT31;58935;54.498;18.544;2023-04-15T02:29:21;9.63;79.35
71206;SHT31;58935;54.498;18.544;2023-04-15T02:31:47;9.61;79.34
71206;SHT31;58935;54.498;18.544;2023-04-15T02:34:13;9.60;79.39
71206;SHT31;58935;54.498;18.544;2023-04-15T02:36:38;9.59;79.42
71206;SHT31;58935;54.498;18.544;2023-04-15T02:39:06;9.61;79.41
71206;SHT31;58935;54.498;18.544;2023-04-15T02:41:31;9.61;79.41
71206;SHT31;58935;54.498;18.544;2023-04-15T02:43:57;9.61;79.37
71206;SHT31;58935;54.498;18.544;2023-04-15T02:46:24;9.61;79.37
71206;SHT31;58935;54.498;18.544;2023-04-15T02:48:52;9.63;79.19
71206;SHT31;58935;54.498;18.544;2023-04-15T02:51:19;9.61;79.14
71206;SHT31;58935;54.498;18.544;2023-04-15T02:53:46;9.60;79.24
71206;SHT31;58935;54.498;18.544;2023-04-15T02:56:12;9.63;79.20
71206;SHT31;58935;54.498;18.544;2023-04-15T02:58:39;9.65;79.15
71206;SHT31;58935;54.498;18.544;2023-04-15T03:01:05;9.66;79.08
71206;SHT31;58935;54.498;18.544;2023-04-15T03:03:31;9.65;79.06
71206;SHT31;58935;54.498;18.544;2023-04-15T03:05:56;9.62;79.05
71206;SHT31;58935;54.498;18.544;2023-04-15T03:08:24;9.61;79.19
71206;SHT31;58935;54.498;18.544;2023-04-15T03:10:50;9.59;79.20
71206;SHT31;58935;54.498;18.544;2023-04-15T03:13:18;9.58;79.28
71206;SHT31;58935;54.498;18.544;2023-04-15T03:15:48;9.56;79.35
71206;SHT31;58935;54.498;18.544;2023-04-15T03:18:13;9.54;79.43
71206;SHT31;58935;54.498;18.544;2023-04-15T03:20:41;9.50;79.60
71206;SHT31;58935;54.498;18.544;2023-04-15T03:23:06;9.44;79.93
71206;SHT31;58935;54.498;18.544;2023-04-15T03:25:31;9.38;80.16
71206;SHT31;58935;54.498;18.544;2023-04-15T03:27:57;9.34;80.40
71206;SHT31;58935;54.498;18.544;2023-04-15T03:30:23;9.27;80.56
71206;SHT31;58935;54.498;18.544;2023-04-15T03:32:49;9.25;80.74
71206;SHT31;58935;54.498;18.544;2023-04-15T03:35:14;9.23;80.81
71206;SHT31;58935;54.498;18.544;2023-04-15T03:37:40;9.21;80.94
71206;SHT31;58935;54.498;18.544;2023-04-15T03:40:06;9.18;81.07
71206;SHT31;58935;54.498;18.544;2023-04-15T03:42:32;9.16;81.16
71206;SHT31;58935;54.498;18.544;2023-04-15T03:44:59;9.14;81.30
71206;SHT31;58935;54.498;18.544;2023-04-15T03:47:24;9.11;81.45
71206;SHT31;58935;54.498;18.544;2023-04-15T03:49:52;9.09;81.57
71206;SHT31;58935;54.498;18.544;2023-04-15T03:52:17;9.09;81.61
71206;SHT31;58935;54.498;18.544;2023-04-15T03:54:43;9.07;81.73
71206;SHT31;58935;54.498;18.544;2023-04-15T03:57:08;9.06;81.81
71206;SHT31;58935;54.498;18.544;2023-04-15T03:59:35;9.06;81.81
71206;SHT31;58935;54.498;18.544;2023-04-15T04:02:01;9.08;81.80
71206;SHT31;58935;54.498;18.544;2023-04-15T04:04:26;9.12;81.71
71206;SHT31;58935;54.498;18.544;2023-04-15T04:06:53;9.14;81.71
71206;SHT31;58935;54.498;18.544;2023-04-15T04:09:19;9.17;81.69
71206;SHT31;58935;54.498;18.544;2023-04-15T04:11:44;9.19;81.60
71206;SHT31;58935;54.498;18.544;2023-04-15T04:14:10;9.22;81.60
71206;SHT31;58935;54.498;18.544;2023-04-15T04:16:35;9.25;81.51
71206;SHT31;58935;54.498;18.544;2023-04-15T04:19:00;9.26;81.48
71206;SHT31;58935;54.498;18.544;2023-04-15T04:21:26;9.27;81.41
71206;SHT31;58935;54.498;18.544;2023-04-15T04:23:52;9.27;81.41
71206;SHT31;58935;54.498;18.544;2023-04-15T04:26:17;9.30;81.40
71206;SHT31;58935;54.498;18.544;2023-04-15T04:28:45;9.33;81.37
71206;SHT31;58935;54.498;18.544;2023-04-15T04:31:10;9.34;81.29
71206;SHT31;58935;54.498;18.544;2023-04-15T04:33:35;9.35;81.32
71206;SHT31;58935;54.498;18.544;2023-04-15T04:36:01;9.37;81.23
71206;SHT31;58935;54.498;18.544;2023-04-15T04:38:26;9.39;81.20
71206;SHT31;58935;54.498;18.544;2023-04-15T04:40:52;9.41;81.18
71206;SHT31;58935;54.498;18.544;2023-04-15T04:43:18;9.45;81.13
71206;SHT31;58935;54.498;18.544;2023-04-15T04:45:43;9.46;80.91
71206;SHT31;58935;54.498;18.544;2023-04-15T04:48:08;9.45;80.91
71206;SHT31;58935;54.498;18.544;2023-04-15T04:50:34;9.44;80.90
71206;SHT31;58935;54.498;18.544;2023-04-15T04:53:00;9.43;81.05
71206;SHT31;58935;54.498;18.544;2023-04-15T04:55:26;9.47;81.07
71206;SHT31;58935;54.498;18.544;2023-04-15T04:57:51;9.48;80.90
71206;SHT31;58935;54.498;18.544;2023-04-15T05:00:17;9.51;80.96
71206;SHT31;58935;54.498;18.544;2023-04-15T05:02:45;9.56;80.99
71206;SHT31;58935;54.498;18.544;2023-04-15T05:05:12;9.57;80.64
71206;SHT31;58935;54.498;18.544;2023-04-15T05:07:38;9.59;80.66
71206;SHT31;58935;54.498;18.544;2023-04-15T05:10:04;9.59;80.66
71206;SHT31;58935;54.498;18.544;2023-04-15T05:12:30;9.63;80.74
71206;SHT31;58935;54.498;18.544;2023-04-15T05:14:56;9.63;80.47
71206;SHT31;58935;54.498;18.544;2023-04-15T05:17:24;9.61;80.48
71206;SHT31;58935;54.498;18.544;2023-04-15T05:19:49;9.62;80.62
71206;SHT31;58935;54.498;18.544;2023-04-15T05:22:14;9.67;80.49
71206;SHT31;58935;54.498;18.544;2023-04-15T05:24:40;9.65;80.28
71206;SHT31;58935;54.498;18.544;2023-04-15T05:27:05;9.63;80.39
71206;SHT31;58935;54.498;18.544;2023-04-15T05:29:32;9.63;80.37
71206;SHT31;58935;54.498;18.544;2023-04-15T05:31:57;9.62;80.41
71206;SHT31;58935;54.498;18.544;2023-04-15T05:34:23;9.62;80.36
71206;SHT31;58935;54.498;18.544;2023-04-15T05:36:48;9.59;80.34
71206;SHT31;58935;54.498;18.544;2023-04-15T05:39:13;9.56;80.34
71206;SHT31;58935;54.498;18.544;2023-04-15T05:41:39;9.51;80.41
71206;SHT31;58935;54.498;18.544;2023-04-15T05:44:05;9.51;80.64
71206;SHT31;58935;54.498;18.544;2023-04-15T05:46:30;9.53;80.53
71206;SHT31;58935;54.498;18.544;2023-04-15T05:48:56;9.54;80.59
71206;SHT31;58935;54.498;18.544;2023-04-15T05:51:23;9.58;80.58
71206;SHT31;58935;54.498;18.544;2023-04-15T05:53:49;9.59;80.31
71206;SHT31;58935;54.498;18.544;2023-04-15T05:56:15;9.60;80.30
71206;SHT31;58935;54.498;18.544;2023-04-15T05:58:40;9.61;80.26
71206;SHT31;58935;54.498;18.544;2023-04-15T06:01:06;9.62;80.14
71206;SHT31;58935;54.498;18.544;2023-04-15T06:03:31;9.60;80.05
71206;SHT31;58935;54.498;18.544;2023-04-15T06:05:57;9.59;80.02
71206;SHT31;58935;54.498;18.544;2023-04-15T06:08:22;9.59;80.03
71206;SHT31;58935;54.498;18.544;2023-04-15T06:10:48;9.62;80.00
71206;SHT31;58935;54.498;18.544;2023-04-15T06:13:13;9.62;80.00
71206;SHT31;58935;54.498;18.544;2023-04-15T06:15:39;9.63;79.89
71206;SHT31;58935;54.498;18.544;2023-04-15T06:18:06;9.65;80.02
71206;SHT31;58935;54.498;18.544;2023-04-15T06:20:31;9.68;79.82
71206;SHT31;58935;54.498;18.544;2023-04-15T06:22:59;9.70;79.73
71206;SHT31;58935;54.498;18.544;2023-04-15T06:25:25;9.76;79.83
71206;SHT31;58935;54.498;18.544;2023-04-15T06:27:50;9.79;79.52
71206;SHT31;58935;54.498;18.544;2023-04-15T06:30:15;9.79;79.48
71206;SHT31;58935;54.498;18.544;2023-04-15T06:32:41;9.81;79.41
71206;SHT31;58935;54.498;18.544;2023-04-15T06:35:06;9.81;79.23
71206;SHT31;58935;54.498;18.544;2023-04-15T06:37:32;9.81;79.33
71206;SHT31;58935;54.498;18.544;2023-04-15T06:39:57;9.83;79.28
71206;SHT31;58935;54.498;18.544;2023-04-15T06:42:22;9.87;79.42
71206;SHT31;58935;54.498;18.544;2023-04-15T06:44:48;9.92;79.16
71206;SHT31;58935;54.498;18.544;2023-04-15T06:47:14;9.93;79.09
71206;SHT31;58935;54.498;18.544;2023-04-15T06:49:39;9.96;78.94
71206;SHT31;58935;54.498;18.544;2023-04-15T06:52:09;9.98;78.82
71206;SHT31;58935;54.498;18.544;2023-04-15T06:54:34;10.02;78.68
71206;SHT31;58935;54.498;18.544;2023-04-15T06:57:00;10.07;78.73
71206;SHT31;58935;54.498;18.544;2023-04-15T06:59:25;10.15;78.67
71206;SHT31;58935;54.498;18.544;2023-04-15T07:01:51;10.20;78.25
71206;SHT31;58935;54.498;18.544;2023-04-15T07:04:16;10.21;77.91
71206;SHT31;58935;54.498;18.544;2023-04-15T07:06:42;10.20;77.72
71206;SHT31;58935;54.498;18.544;2023-04-15T07:09:07;10.18;77.85
71206;SHT31;58935;54.498;18.544;2023-04-15T07:11:33;10.20;78.03
71206;SHT31;58935;54.498;18.544;2023-04-15T07:13:58;10.24;77.86
71206;SHT31;58935;54.498;18.544;2023-04-15T07:16:23;10.26;77.72
71206;SHT31;58935;54.498;18.544;2023-04-15T07:18:49;10.28;77.64
71206;SHT31;58935;54.498;18.544;2023-04-15T07:21:16;10.32;77.66
71206;SHT31;58935;54.498;18.544;2023-04-15T07:23:42;10.35;77.58
71206;SHT31;58935;54.498;18.544;2023-04-15T07:26:12;10.40;77.43
71206;SHT31;58935;54.498;18.544;2023-04-15T07:28:38;10.38;76.94
71206;SHT31;58935;54.498;18.544;2023-04-15T07:31:03;10.39;77.33
71206;SHT31;58935;54.498;18.544;2023-04-15T07:33:28;10.44;77.36
71206;SHT31;58935;54.498;18.544;2023-04-15T07:35:54;10.49;76.99
71206;SHT31;58935;54.498;18.544;2023-04-15T07:38:19;10.52;76.98
71206;SHT31;58935;54.498;18.544;2023-04-15T07:40:45;10.54;76.71
71206;SHT31;58935;54.498;18.544;2023-04-15T07:43:10;10.57;76.75
71206;SHT31;58935;54.498;18.544;2023-04-15T07:45:37;10.61;76.53
71206;SHT31;58935;54.498;18.544;2023-04-15T07:48:02;10.63;76.50
71206;SHT31;58935;54.498;18.544;2023-04-15T07:50:28;10.65;76.43
71206;SHT31;58935;54.498;18.544;2023-04-15T07:52:56;10.69;76.35
71206;SHT31;58935;54.498;18.544;2023-04-15T07:55:21;10.71;75.97
71206;SHT31;58935;54.498;18.544;2023-04-15T07:57:48;10.76;76.06
71206;SHT31;58935;54.498;18.544;2023-04-15T08:00:14;10.84;76.06
71206;SHT31;58935;54.498;18.544;2023-04-15T08:02:40;10.94;75.73
71206;SHT31;58935;54.498;18.544;2023-04-15T08:05:07;11.03;75.55
71206;SHT31;58935;54.498;18.544;2023-04-15T08:07:33;11.08;74.99
71206;SHT31;58935;54.498;18.544;2023-04-15T08:09:59;11.16;74.99
71206;SHT31;58935;54.498;18.544;2023-04-15T08:12:24;11.24;74.85
71206;SHT31;58935;54.498;18.544;2023-04-15T08:14:50;11.36;74.50
71206;SHT31;58935;54.498;18.544;2023-04-15T08:17:18;11.45;74.42
71206;SHT31;58935;54.498;18.544;2023-04-15T08:19:44;11.60;74.40
71206;SHT31;58935;54.498;18.544;2023-04-15T08:22:09;11.72;73.47
71206;SHT31;58935;54.498;18.544;2023-04-15T08:24:38;11.73;73.14
71206;SHT31;58935;54.498;18.544;2023-04-15T08:27:06;11.73;72.72
71206;SHT31;58935;54.498;18.544;2023-04-15T08:29:32;11.67;72.31
71206;SHT31;58935;54.498;18.544;2023-04-15T08:31:58;11.52;72.52
71206;SHT31;58935;54.498;18.544;2023-04-15T08:34:24;11.40;72.94
71206;SHT31;58935;54.498;18.544;2023-04-15T08:36:50;11.33;73.17
71206;SHT31;58935;54.498;18.544;2023-04-15T08:39:16;11.27;73.29
71206;SHT31;58935;54.498;18.544;2023-04-15T08:44:12;11.14;73.61
71206;SHT31;58935;54.498;18.544;2023-04-15T08:46:38;11.09;73.84
71206;SHT31;58935;54.498;18.544;2023-04-15T08:49:09;11.04;74.01
71206;SHT31;58935;54.498;18.544;2023-04-15T08:51:39;11.01;74.30
71206;SHT31;58935;54.498;18.544;2023-04-15T08:54:05;11.05;74.49
71206;SHT31;58935;54.498;18.544;2023-04-15T08:56:32;11.10;74.42
71206;SHT31;58935;54.498;18.544;2023-04-15T08:58:58;11.13;74.16
71206;SHT31;58935;54.498;18.544;2023-04-15T09:01:24;11.15;74.09
71206;SHT31;58935;54.498;18.544;2023-04-15T09:03:50;11.15;73.92
71206;SHT31;58935;54.498;18.544;2023-04-15T09:06:18;11.15;74.01
71206;SHT31;58935;54.498;18.544;2023-04-15T09:08:45;11.20;74.01
71206;SHT31;58935;54.498;18.544;2023-04-15T09:11:10;11.26;73.93
71206;SHT31;58935;54.498;18.544;2023-04-15T09:13:38;11.34;73.82
71206;SHT31;58935;54.498;18.544;2023-04-15T09:16:04;11.42;73.81
71206;SHT31;58935;54.498;18.544;2023-04-15T09:18:31;11.51;73.33
71206;SHT31;58935;54.498;18.544;2023-04-15T09:23:35;11.57;72.97
71206;SHT31;58935;54.498;18.544;2023-04-15T09:26:02;11.58;72.72
71206;SHT31;58935;54.498;18.544;2023-04-15T09:28:28;11.52;72.68
71206;SHT31;58935;54.498;18.544;2023-04-15T09:30:57;11.44;73.02
71206;SHT31;58935;54.498;18.544;2023-04-15T09:33:23;11.40;73.33
71206;SHT31;58935;54.498;18.544;2023-04-15T09:38:24;11.34;73.46
71206;SHT31;58935;54.498;18.544;2023-04-15T09:40:49;11.31;73.53
71206;SHT31;58935;54.498;18.544;2023-04-15T09:43:15;11.27;73.56
71206;SHT31;58935;54.498;18.544;2023-04-15T09:48:15;11.11;73.95
71206;SHT31;58935;54.498;18.544;2023-04-15T09:50:46;11.02;74.16
71206;SHT31;58935;54.498;18.544;2023-04-15T09:53:15;10.96;74.45
71206;SHT31;58935;54.498;18.544;2023-04-15T09:55:45;10.95;74.68
71206;SHT31;58935;54.498;18.544;2023-04-15T10:00:43;11.02;74.68
71206;SHT31;58935;54.498;18.544;2023-04-15T10:03:14;11.01;74.60
71206;SHT31;58935;54.498;18.544;2023-04-15T10:05:44;10.97;74.74
71206;SHT31;58935;54.498;18.544;2023-04-15T10:08:11;10.94;74.94
71206;SHT31;58935;54.498;18.544;2023-04-15T10:10:37;10.93;74.88
71206;SHT31;58935;54.498;18.544;2023-04-15T10:13:02;10.92;74.98
71206;SHT31;58935;54.498;18.544;2023-04-15T10:15:28;10.92;75.01
71206;SHT31;58935;54.498;18.544;2023-04-15T10:17:55;10.91;75.01
71206;SHT31;58935;54.498;18.544;2023-04-15T10:20:24;10.88;75.15
71206;SHT31;58935;54.498;18.544;2023-04-15T10:22:51;10.89;75.30
71206;SHT31;58935;54.498;18.544;2023-04-15T10:25:17;10.90;75.22
71206;SHT31;58935;54.498;18.544;2023-04-15T10:27:43;10.88;75.28
71206;SHT31;58935;54.498;18.544;2023-04-15T10:30:09;10.88;75.48
71206;SHT31;58935;54.498;18.544;2023-04-15T10:32:35;10.85;75.42
71206;SHT31;58935;54.498;18.544;2023-04-15T10:35:02;10.83;75.59
71206;SHT31;58935;54.498;18.544;2023-04-15T10:37:32;10.83;75.65
71206;SHT31;58935;54.498;18.544;2023-04-15T10:40:14;10.81;75.66
71206;SHT31;58935;54.498;18.544;2023-04-15T10:42:49;10.82;75.80
71206;SHT31;58935;54.498;18.544;2023-04-15T10:45:15;10.83;75.74
71206;SHT31;58935;54.498;18.544;2023-04-15T10:47:43;10.78;75.78
71206;SHT31;58935;54.498;18.544;2023-04-15T10:50:09;10.73;75.89
71206;SHT31;58935;54.498;18.544;2023-04-15T10:52:39;10.74;76.15
71206;SHT31;58935;54.498;18.544;2023-04-15T10:57:41;10.84;75.89
71206;SHT31;58935;54.498;18.544;2023-04-15T11:00:09;10.87;75.72
71206;SHT31;58935;54.498;18.544;2023-04-15T11:05:08;10.84;75.60
71206;SHT31;58935;54.498;18.544;2023-04-15T11:13:19;10.74;76.02
71206;SHT31;58935;54.498;18.544;2023-04-15T11:15:47;10.73;75.94
71206;SHT31;58935;54.498;18.544;2023-04-15T11:18:14;10.67;75.93
71206;SHT31;58935;54.498;18.544;2023-04-15T11:20:43;10.62;76.14
71206;SHT31;58935;54.498;18.544;2023-04-15T11:23:10;10.60;76.43
71206;SHT31;58935;54.498;18.544;2023-04-15T11:25:39;10.67;76.41
71206;SHT31;58935;54.498;18.544;2023-04-15T11:28:04;10.73;76.32
71206;SHT31;58935;54.498;18.544;2023-04-15T11:30:32;10.76;76.01
71206;SHT31;58935;54.498;18.544;2023-04-15T11:33:00;10.74;76.10
71206;SHT31;58935;54.498;18.544;2023-04-15T11:35:27;10.70;76.13
71206;SHT31;58935;54.498;18.544;2023-04-15T11:37:53;10.65;76.23
71206;SHT31;58935;54.498;18.544;2023-04-15T11:40:22;10.65;76.34
71206;SHT31;58935;54.498;18.544;2023-04-15T11:45:20;10.73;76.61
71206;SHT31;58935;54.498;18.544;2023-04-15T11:47:45;10.84;76.43
71206;SHT31;58935;54.498;18.544;2023-04-15T11:55:15;11.11;75.68
71206;SHT31;58935;54.498;18.544;2023-04-15T11:57:40;11.24;75.41
71206;SHT31;58935;54.498;18.544;2023-04-15T12:00:06;11.35;75.06
71206;SHT31;58935;54.498;18.544;2023-04-15T12:02:35;11.43;74.55
71206;SHT31;58935;54.498;18.544;2023-04-15T12:05:02;11.48;74.34
71206;SHT31;58935;54.498;18.544;2023-04-15T12:07:29;11.56;74.40
71206;SHT31;58935;54.498;18.544;2023-04-15T12:09:54;11.69;74.50
71206;SHT31;58935;54.498;18.544;2023-04-15T12:12:21;11.82;73.72
71206;SHT31;58935;54.498;18.544;2023-04-15T12:14:52;11.85;73.15
71206;SHT31;58935;54.498;18.544;2023-04-15T12:17:18;11.89;73.56
71206;SHT31;58935;54.498;18.544;2023-04-15T12:19:43;11.95;73.17
71206;SHT31;58935;54.498;18.544;2023-04-15T12:22:11;12.02;73.27
71206;SHT31;58935;54.498;18.544;2023-04-15T12:24:40;12.10;73.07
71206;SHT31;58935;54.498;18.544;2023-04-15T12:27:10;12.06;72.12
71206;SHT31;58935;54.498;18.544;2023-04-15T12:29:36;11.87;72.11
71206;SHT31;58935;54.498;18.544;2023-04-15T12:32:05;11.77;72.86
71206;SHT31;58935;54.498;18.544;2023-04-15T12:34:34;11.76;73.13
71206;SHT31;58935;54.498;18.544;2023-04-15T12:37:03;11.75;73.22
71206;SHT31;58935;54.498;18.544;2023-04-15T12:39:30;11.77;73.20
71206;SHT31;58935;54.498;18.544;2023-04-15T12:41:58;11.76;73.02
71206;SHT31;58935;54.498;18.544;2023-04-15T12:44:25;11.77;73.31
71206;SHT31;58935;54.498;18.544;2023-04-15T12:46:51;11.85;73.29
71206;SHT31;58935;54.498;18.544;2023-04-15T12:49:20;11.92;72.99
71206;SHT31;58935;54.498;18.544;2023-04-15T12:51:48;11.95;72.76
71206;SHT31;58935;54.498;18.544;2023-04-15T12:54:15;11.97;72.81
71206;SHT31;58935;54.498;18.544;2023-04-15T12:56:41;11.99;72.64
71206;SHT31;58935;54.498;18.544;2023-04-15T12:59:09;11.94;72.43
71206;SHT31;58935;54.498;18.544;2023-04-15T13:01:37;11.85;72.54
71206;SHT31;58935;54.498;18.544;2023-04-15T13:04:02;11.75;72.64
71206;SHT31;58935;54.498;18.544;2023-04-15T13:06:28;11.62;72.87
71206;SHT31;58935;54.498;18.544;2023-04-15T13:08:53;11.48;73.20
71206;SHT31;58935;54.498;18.544;2023-04-15T13:11:20;11.30;73.76
71206;SHT31;58935;54.498;18.544;2023-04-15T13:13:46;11.13;74.29
71206;SHT31;58935;54.498;18.544;2023-04-15T13:16:12;10.98;74.75
71206;SHT31;58935;54.498;18.544;2023-04-15T13:18:37;10.91;75.11
71206;SHT31;58935;54.498;18.544;2023-04-15T13:21:02;10.89;75.32
71206;SHT31;58935;54.498;18.544;2023-04-15T13:23:28;10.92;75.44
71206;SHT31;58935;54.498;18.544;2023-04-15T13:25:55;10.98;75.36
71206;SHT31;58935;54.498;18.544;2023-04-15T13:28:21;11.03;75.20
71206;SHT31;58935;54.498;18.544;2023-04-15T13:30:46;11.06;75.16
71206;SHT31;58935;54.498;18.544;2023-04-15T13:33:12;11.12;75.20
71206;SHT31;58935;54.498;18.544;2023-04-15T13:35:38;11.15;75.14
71206;SHT31;58935;54.498;18.544;2023-04-15T13:38:04;11.15;74.92
71206;SHT31;58935;54.498;18.544;2023-04-15T13:40:31;11.16;75.09
71206;SHT31;58935;54.498;18.544;2023-04-15T13:42:57;11.15;74.86
71206;SHT31;58935;54.498;18.544;2023-04-15T13:45:25;11.11;75.01
71206;SHT31;58935;54.498;18.544;2023-04-15T13:47:51;11.06;74.85
71206;SHT31;58935;54.498;18.544;2023-04-15T13:50:16;10.98;75.11
71206;SHT31;58935;54.498;18.544;2023-04-15T13:52:42;10.91;75.29
71206;SHT31;58935;54.498;18.544;2023-04-15T13:55:07;10.87;75.48
71206;SHT31;58935;54.498;18.544;2023-04-15T13:57:33;10.83;75.54
71206;SHT31;58935;54.498;18.544;2023-04-15T14:00:01;10.79;75.77
71206;SHT31;58935;54.498;18.544;2023-04-15T14:02:28;10.80;75.93
71206;SHT31;58935;54.498;18.544;2023-04-15T14:04:54;10.79;75.92
71206;SHT31;58935;54.498;18.544;2023-04-15T14:07:19;10.79;76.01
71206;SHT31;58935;54.498;18.544;2023-04-15T14:09:44;10.80;76.03
71206;SHT31;58935;54.498;18.544;2023-04-15T14:12:10;10.78;75.98
71206;SHT31;58935;54.498;18.544;2023-04-15T14:14:35;10.80;75.98
71206;SHT31;58935;54.498;18.544;2023-04-15T14:17:01;10.81;75.96
71206;SHT31;58935;54.498;18.544;2023-04-15T14:19:28;10.77;75.78
71206;SHT31;58935;54.498;18.544;2023-04-15T14:21:54;10.76;76.02
71206;SHT31;58935;54.498;18.544;2023-04-15T14:24:21;10.75;76.07
71206;SHT31;58935;54.498;18.544;2023-04-15T14:26:47;10.73;76.04
71206;SHT31;58935;54.498;18.544;2023-04-15T14:29:12;10.69;76.09
71206;SHT31;58935;54.498;18.544;2023-04-15T14:31:40;10.69;76.28
71206;SHT31;58935;54.498;18.544;2023-04-15T14:34:05;10.64;76.16
71206;SHT31;58935;54.498;18.544;2023-04-15T14:36:30;10.61;76.32
71206;SHT31;58935;54.498;18.544;2023-04-15T14:38:58;10.60;76.37
71206;SHT31;58935;54.498;18.544;2023-04-15T14:41:23;10.55;76.40
71206;SHT31;58935;54.498;18.544;2023-04-15T14:43:51;10.52;76.46
71206;SHT31;58935;54.498;18.544;2023-04-15T14:46:16;10.50;76.69
71206;SHT31;58935;54.498;18.544;2023-04-15T14:48:42;10.51;76.74
71206;SHT31;58935;54.498;18.544;2023-04-15T14:51:07;10.51;76.63
71206;SHT31;58935;54.498;18.544;2023-04-15T14:53:35;10.50;76.63
71206;SHT31;58935;54.498;18.544;2023-04-15T14:56:00;10.48;76.64
71206;SHT31;58935;54.498;18.544;2023-04-15T14:58:25;10.47;76.75
71206;SHT31;58935;54.498;18.544;2023-04-15T15:00:51;10.48;76.85
71206;SHT31;58935;54.498;18.544;2023-04-15T15:03:16;10.49;76.79
71206;SHT31;58935;54.498;18.544;2023-04-15T15:05:42;10.47;76.79
71206;SHT31;58935;54.498;18.544;2023-04-15T15:08:09;10.45;76.89
71206;SHT31;58935;54.498;18.544;2023-04-15T15:10:35;10.42;76.90
71206;SHT31;58935;54.498;18.544;2023-04-15T15:13:03;10.39;76.98
71206;SHT31;58935;54.498;18.544;2023-04-15T15:15:30;10.39;77.10
71206;SHT31;58935;54.498;18.544;2023-04-15T15:17:56;10.37;77.10
71206;SHT31;58935;54.498;18.544;2023-04-15T15:20:21;10.36;77.20
71206;SHT31;58935;54.498;18.544;2023-04-15T15:22:47;10.35;77.22
71206;SHT31;58935;54.498;18.544;2023-04-15T15:25:13;10.34;77.34
71206;SHT31;58935;54.498;18.544;2023-04-15T15:27:40;10.32;77.39
71206;SHT31;58935;54.498;18.544;2023-04-15T15:30:06;10.30;77.47
71206;SHT31;58935;54.498;18.544;2023-04-15T15:32:32;10.25;77.54
71206;SHT31;58935;54.498;18.544;2023-04-15T15:34:57;10.18;77.72
71206;SHT31;58935;54.498;18.544;2023-04-15T15:37:22;10.09;77.95
71206;SHT31;58935;54.498;18.544;2023-04-15T15:39:48;10.03;78.31
71206;SHT31;58935;54.498;18.544;2023-04-15T15:42:14;9.98;78.45
71206;SHT31;58935;54.498;18.544;2023-04-15T15:44:43;9.94;78.61
71206;SHT31;58935;54.498;18.544;2023-04-15T15:47:08;9.89;78.81
71206;SHT31;58935;54.498;18.544;2023-04-15T15:49:33;9.83;79.10